This is the latest recevied weather packets stored in our database for station/object N5ZP. If no packets are shown the sender has not sent any weather packets the latest 10 day(s).
| Time | Temp. | Humidity | Pressure | Rain* | Wind** | Luminosity | Snow |
|---|---|---|---|---|---|---|---|
| 1777754091 | 25° C | 41% | 1017.3 hPa | 0 mm | - | 600 W/m² | - |
| 1777753788 | 25° C | 44% | 1017.3 hPa | 0 mm | - | 628 W/m² | - |
| 1777753484 | 25° C | 39% | 1017.5 hPa | 0 mm | - | 634 W/m² | - |
| 1777753183 | 25° C | 41% | 1017.6 hPa | 0 mm | - | 637 W/m² | - |
| 1777752878 | 24.44° C | 44% | 1017.5 hPa | 0 mm | - | 655 W/m² | - |
| 1777752575 | 25° C | 43% | 1017.7 hPa | 0 mm | - | 653 W/m² | - |
| 1777752271 | 25° C | 41% | 1017.9 hPa | 0 mm | - | 680 W/m² | - |
| 1777751969 | 24.44° C | 43% | 1017.8 hPa | 0 mm | - | 686 W/m² | - |
| 1777751666 | 23.89° C | 43% | 1017.6 hPa | 0 mm | - | 692 W/m² | - |
| 1777751362 | 24.44° C | 38% | 1017.8 hPa | 0 mm | - | 703 W/m² | - |
| 1777751059 | 24.44° C | 43% | 1017.7 hPa | 0 mm | - | 705 W/m² | - |
| 1777750755 | 25° C | 40% | 1018 hPa | 0 mm | - | 708 W/m² | - |
| 1777750452 | 25° C | 41% | 1017.7 hPa | 0 mm | - | 716 W/m² | - |
| 1777750147 | 26.11° C | 40% | 1017.7 hPa | 0 mm | - | 727 W/m² | - |
| 1777749845 | 26.11° C | 40% | 1018.2 hPa | 0 mm | - | 727 W/m² | - |
| 1777749542 | 25° C | 44% | 1018 hPa | 0 mm | - | 740 W/m² | - |
| 1777749240 | 24.44° C | 40% | 1018 hPa | 0 mm | - | 751 W/m² | - |
| 1777748937 | 24.44° C | 41% | 1017.8 hPa | 0 mm | - | 745 W/m² | - |
| 1777748634 | 23.89° C | 43% | 1018.2 hPa | 0 mm | - | 750 W/m² | - |
| 1777748330 | 23.33° C | 43% | 1018.3 hPa | 0 mm | - | 760 W/m² | - |
| 1777748025 | 23.33° C | 42% | 1018.2 hPa | 0 mm | - | 770 W/m² | - |
| 1777747723 | 23.89° C | 41% | 1018.5 hPa | 0 mm | - | 767 W/m² | - |
| 1777747418 | 25.56° C | 36% | 1018.3 hPa | 0 mm | - | 767 W/m² | - |
| 1777747115 | 25° C | 40% | 1018.5 hPa | 0 mm | - | 775 W/m² | - |
| 1777746811 | 24.44° C | 42% | 1018.6 hPa | 0 mm | - | 774 W/m² | - |
* Rain latest hour (hover to see other rain measurements)
** Current wind speed in m/s (hover to see current wind gust speed)